Time;durP1;ratioP1;P1;durP2;ratioP2;P2;SDS_P1;SDS_P2;PMS_P1;PMS_P2;Temp;Humidity;BMP_temperature;BMP_pressure;BME280_temperature;BME280_humidity;BME280_pressure;Samples;Min_cycle;Max_cycle;Signal;HPM_P1;HPM_P2
2022/03/16 00:01:45;;;;;;;40.67;20.80;;;;;;;4.38;100.00;101286.44;7392556;19;20392;-51
2022/03/16 00:04:14;;;;;;;44.63;20.67;;;;;;;4.34;100.00;101293.00;7386816;19;20942;-52
2022/03/16 00:06:44;;;;;;;45.57;21.37;;;;;;;4.33;100.00;101286.09;7393048;19;20384;-49
2022/03/16 00:09:14;;;;;;;51.53;21.70;;;;;;;4.12;100.00;101299.03;7386981;19;20405;-55
2022/03/16 00:11:46;;;;;;;43.57;20.83;;;;;;;3.90;100.00;101305.03;7392613;19;20375;-55
2022/03/16 00:14:15;;;;;;;52.60;20.57;;;;;;;3.83;100.00;101307.88;7387600;19;20437;-56
2022/03/16 00:16:45;;;;;;;47.43;21.73;;;;;;;3.84;100.00;101307.09;7392203;19;20462;-54
2022/03/16 00:19:14;;;;;;;53.37;24.30;;;;;;;4.21;100.00;101297.94;7387779;19;20427;-55
2022/03/16 00:21:44;;;;;;;49.63;22.73;;;;;;;4.34;100.00;101300.66;7392022;19;20366;-51
2022/03/16 00:24:13;;;;;;;48.90;22.33;;;;;;;4.32;100.00;101304.78;7384795;19;20439;-53
2022/03/16 00:26:45;;;;;;;45.70;22.20;;;;;;;4.25;100.00;101305.09;7391725;19;20390;-50
2022/03/16 00:29:15;;;;;;;49.60;23.40;;;;;;;4.57;100.00;101304.06;7386218;19;20403;-50
2022/03/16 00:31:44;;;;;;;56.83;25.40;;;;;;;4.59;100.00;101318.75;7392341;19;20383;-48
2022/03/16 00:34:14;;;;;;;52.10;23.73;;;;;;;4.25;100.00;101335.75;7386181;19;20498;-53
2022/03/16 00:36:44;;;;;;;53.47;22.37;;;;;;;4.61;100.00;101321.38;7391824;19;20621;-51
2022/03/16 00:39:14;;;;;;;43.07;22.27;;;;;;;4.55;100.00;101333.72;7388114;19;20401;-53
2022/03/16 00:41:46;;;;;;;48.23;22.10;;;;;;;4.35;100.00;101338.19;7391741;19;20384;-53
2022/03/16 00:44:15;;;;;;;45.97;22.00;;;;;;;4.22;100.00;101345.69;7389634;19;20450;-51
2022/03/16 00:46:45;;;;;;;43.37;21.27;;;;;;;4.12;100.00;101346.66;7395640;19;20395;-51
2022/03/16 00:49:14;;;;;;;53.40;23.20;;;;;;;3.98;100.00;101348.13;7384673;19;20423;-54
2022/03/16 00:51:44;;;;;;;42.77;21.83;;;;;;;3.84;100.00;101357.28;7391582;19;20394;-53
2022/03/16 00:54:13;;;;;;;46.70;22.30;;;;;;;3.83;100.00;101351.28;7385300;19;20960;-51
2022/03/16 00:56:45;;;;;;;40.77;21.63;;;;;;;3.79;100.00;101349.25;7391747;19;20403;-49
2022/03/16 00:59:15;;;;;;;58.23;23.40;;;;;;;3.72;100.00;101353.00;7385694;19;20479;-54
2022/03/16 01:01:45;;;;;;;44.60;22.00;;;;;;;3.79;100.00;101354.34;7391624;19;20398;-53
2022/03/16 01:04:14;;;;;;;42.63;21.83;;;;;;;3.78;100.00;101353.47;7384893;19;20979;-53
2022/03/16 01:06:44;;;;;;;49.20;23.83;;;;;;;3.73;100.00;101348.75;7391319;19;20390;-53
2022/03/16 01:09:13;;;;;;;60.97;24.17;;;;;;;3.74;100.00;101341.22;7381563;19;20426;-54
2022/03/16 01:11:45;;;;;;;49.83;23.23;;;;;;;3.81;100.00;101345.16;7397012;19;20403;-52
2022/03/16 01:14:15;;;;;;;49.47;22.60;;;;;;;3.79;100.00;101341.59;7392729;19;20426;-52
2022/03/16 01:16:45;;;;;;;43.23;22.87;;;;;;;3.67;100.00;101350.81;7397768;19;20375;-54
2022/03/16 01:19:15;;;;;;;41.67;22.20;;;;;;;3.63;100.00;101348.03;7390688;19;20486;-48
2022/03/16 01:21:47;;;;;;;40.00;21.17;;;;;;;3.68;100.00;101348.41;7401342;19;20950;-51
2022/03/16 01:24:16;;;;;;;43.30;20.23;;;;;;;3.70;100.00;101353.63;7392935;19;20420;-51
2022/03/16 01:26:49;;;;;;;38.10;21.07;;;;;;;3.60;100.00;101355.44;7397321;19;20351;-55
2022/03/16 01:29:18;;;;;;;55.60;26.00;;;;;;;3.67;100.00;101350.81;7392335;19;20434;-50
2022/03/16 01:31:48;;;;;;;55.93;23.90;;;;;;;3.65;100.00;101351.59;7397891;19;20394;-52
2022/03/16 01:34:17;;;;;;;42.57;21.63;;;;;;;3.78;100.00;101352.56;7391098;19;20439;-50
2022/03/16 01:36:47;;;;;;;54.50;24.90;;;;;;;4.00;100.00;101344.94;7397377;19;20402;-51
2022/03/16 01:39:17;;;;;;;53.40;23.97;;;;;;;3.88;100.00;101349.06;7391971;19;20395;-50
2022/03/16 01:41:49;;;;;;;58.40;24.50;;;;;;;3.91;100.00;101350.19;7397565;19;20731;-53
2022/03/16 01:44:19;;;;;;;49.33;24.47;;;;;;;3.98;100.00;101355.78;7391512;19;20458;-55
2022/03/16 01:46:49;;;;;;;51.50;23.77;;;;;;;4.00;100.00;101354.28;7397136;19;20371;-49
2022/03/16 01:49:18;;;;;;;46.70;23.07;;;;;;;4.22;100.00;101346.59;7392528;19;20425;-54
2022/03/16 01:51:48;;;;;;;56.03;23.93;;;;;;;4.31;100.00;101348.97;7396982;19;20802;-53
2022/03/16 01:54:17;;;;;;;47.70;22.30;;;;;;;4.15;100.00;101354.56;7391763;19;20430;-53
2022/03/16 01:56:49;;;;;;;38.13;20.67;;;;;;;4.19;100.00;101354.91;7396634;19;20925;-52
2022/03/16 01:59:19;;;;;;;39.90;19.43;;;;;;;4.08;100.00;101359.94;7391140;19;20437;-53
2022/03/16 02:01:48;;;;;;;51.63;24.47;;;;;;;3.94;100.00;101367.44;7396745;19;20394;-54
2022/03/16 02:04:18;;;;;;;39.60;19.60;;;;;;;4.08;100.00;101363.41;7391358;19;20431;-53
2022/03/16 02:06:48;;;;;;;46.00;21.07;;;;;;;4.17;100.00;101364.09;7396591;19;20384;-52
2022/03/16 02:09:17;;;;;;;60.10;26.30;;;;;;;4.09;100.00;101370.28;7391483;19;20419;-53
2022/03/16 02:11:49;;;;;;;45.50;23.03;;;;;;;4.09;100.00;101370.28;7396463;19;20375;-53
2022/03/16 02:14:19;;;;;;;46.13;24.40;;;;;;;4.19;100.00;101372.81;7389764;19;20411;-52
2022/03/16 02:16:49;;;;;;;40.73;18.60;;;;;;;4.13;100.00;101369.78;7396076;19;20427;-54
2022/03/16 02:19:19;;;;;;;46.00;20.90;;;;;;;3.95;100.00;101376.00;7388886;19;20419;-55
2022/03/16 02:21:49;;;;;;;41.93;21.77;;;;;;;4.03;100.00;101373.28;7394340;19;20396;-50
2022/03/16 02:24:23;;;;;;;43.53;19.50;;;;;;;4.03;100.00;101378.38;7385382;19;20765;-52
2022/03/16 02:26:53;;;;;;;37.47;19.03;;;;;;;4.01;100.00;101381.59;7392037;19;20387;-53
2022/03/16 02:29:22;;;;;;;38.63;19.37;;;;;;;3.98;100.00;101391.53;7385998;19;20424;-51
2022/03/16 02:31:52;;;;;;;37.17;20.60;;;;;;;4.00;100.00;101383.22;7396037;19;20410;-53
2022/03/16 02:34:22;;;;;;;41.43;20.90;;;;;;;4.24;100.00;101385.03;7385853;19;20961;-52
2022/03/16 02:36:51;;;;;;;39.87;19.60;;;;;;;4.50;100.00;101378.50;7391956;19;20399;-50
2022/03/16 02:39:23;;;;;;;36.83;20.00;;;;;;;4.56;100.00;101389.19;7387317;19;20478;-52
2022/03/16 02:41:53;;;;;;;44.60;20.50;;;;;;;4.50;100.00;101393.84;7392426;19;20451;-54
2022/03/16 02:44:23;;;;;;;40.87;18.60;;;;;;;4.49;100.00;101399.69;7386841;19;20426;-51
2022/03/16 02:46:52;;;;;;;45.50;21.80;;;;;;;4.30;100.00;101405.94;7383864;19;20425;-50
2022/03/16 02:49:22;;;;;;;41.80;19.80;;;;;;;4.08;100.00;101414.50;7390437;19;20427;-52
2022/03/16 02:51:51;;;;;;;37.47;18.27;;;;;;;4.07;100.00;101409.25;7395172;19;20403;-51
2022/03/16 02:54:23;;;;;;;38.90;20.13;;;;;;;3.95;100.00;101416.84;7389011;19;20415;-51
2022/03/16 02:56:53;;;;;;;47.83;20.87;;;;;;;3.74;100.00;101424.59;7399079;19;20400;-53
2022/03/16 02:59:23;;;;;;;44.93;21.90;;;;;;;3.76;100.00;101420.50;7389136;19;20419;-53
2022/03/16 03:01:52;;;;;;;42.60;20.47;;;;;;;3.78;100.00;101421.50;7394935;19;20367;-51
2022/03/16 03:04:22;;;;;;;41.03;20.30;;;;;;;3.84;100.00;101419.44;7388551;19;20954;-56
2022/03/16 03:06:52;;;;;;;45.33;20.57;;;;;;;3.65;100.00;101417.09;7394555;19;20902;-55
2022/03/16 03:09:24;;;;;;;48.93;21.07;;;;;;;3.88;100.00;101415.47;7387988;19;20402;-52
2022/03/16 03:11:53;;;;;;;43.23;20.80;;;;;;;4.15;100.00;101415.88;7394688;19;20398;-54
2022/03/16 03:14:23;;;;;;;46.27;21.53;;;;;;;4.14;100.00;101419.19;7389188;19;20410;-51
2022/03/16 03:16:53;;;;;;;43.90;20.63;;;;;;;4.06;100.00;101428.81;7396264;19;20399;-50
2022/03/16 03:19:23;;;;;;;51.00;20.67;;;;;;;3.99;100.00;101429.09;7389057;19;20856;-50
2022/03/16 03:21:53;;;;;;;40.17;20.03;;;;;;;3.98;100.00;101425.66;7393898;19;20390;-50
2022/03/16 03:24:25;;;;;;;42.70;20.37;;;;;;;3.78;100.00;101444.47;7386358;19;20952;-48
2022/03/16 03:26:55;;;;;;;42.87;21.33;;;;;;;3.60;100.00;101449.00;7393741;19;20412;-55
2022/03/16 03:29:25;;;;;;;45.93;20.97;;;;;;;3.58;100.00;101451.41;7387714;19;20482;-53
2022/03/16 03:31:54;;;;;;;31.67;18.63;;;;;;;3.32;100.00;101460.38;7393809;19;20386;-52
2022/03/16 03:34:24;;;;;;;40.70;20.27;;;;;;;3.18;100.00;101459.22;7386843;19;20422;-50
2022/03/16 03:36:54;;;;;;;49.77;21.07;;;;;;;3.07;100.00;101460.91;7393540;19;20387;-50
2022/03/16 03:39:26;;;;;;;42.47;18.50;;;;;;;3.01;100.00;101460.38;7388376;19;20419;-52
2022/03/16 03:41:55;;;;;;;42.23;21.67;;;;;;;2.93;100.00;101464.84;7393936;19;20377;-53
2022/03/16 03:44:25;;;;;;;45.43;20.10;;;;;;;2.89;100.00;101461.91;7387481;19;20415;-49
2022/03/16 03:46:55;;;;;;;44.57;22.07;;;;;;;2.97;100.00;101461.78;7392937;19;20402;-51
2022/03/16 03:49:24;;;;;;;44.23;22.73;;;;;;;2.82;100.00;101463.06;7388704;19;20422;-50
2022/03/16 03:51:54;;;;;;;46.50;21.40;;;;;;;2.74;100.00;101470.06;7393380;19;20384;-48
2022/03/16 03:54:26;;;;;;;45.37;21.60;;;;;;;2.99;100.00;101455.91;7388706;19;20973;-52
2022/03/16 03:56:56;;;;;;;42.87;20.47;;;;;;;2.86;100.00;101466.75;7393113;19;20735;-52
2022/03/16 03:59:26;;;;;;;98.23;42.73;;;;;;;3.00;100.00;101457.69;7386898;19;20513;-52
2022/03/16 04:01:58;;;;;;;56.33;25.30;;;;;;;2.84;100.00;101462.41;7393088;19;20739;-53
2022/03/16 04:04:28;;;;;;;49.50;22.50;;;;;;;2.66;100.00;101465.97;7387350;19;20424;-53
2022/03/16 04:06:58;;;;;;;45.07;21.20;;;;;;;2.58;100.00;101461.84;7392844;19;20370;-52
2022/03/16 04:09:30;;;;;;;54.37;22.67;;;;;;;2.61;100.00;101457.03;7387504;19;20937;-50
2022/03/16 04:12:00;;;;;;;43.23;20.17;;;;;;;2.72;100.00;101461.38;7393060;19;21292;-47
2022/03/16 04:14:29;;;;;;;43.03;21.00;;;;;;;2.72;100.00;101461.38;7385865;19;20429;-51
2022/03/16 04:16:59;;;;;;;47.07;21.90;;;;;;;2.56;100.00;101465.16;7392596;19;20913;-52
2022/03/16 04:19:29;;;;;;;48.10;22.60;;;;;;;2.42;100.00;101463.09;7387032;19;20394;-51
2022/03/16 04:21:59;;;;;;;53.47;21.90;;;;;;;2.23;100.00;101469.16;7392559;19;20388;-49
2022/03/16 04:24:31;;;;;;;46.57;22.33;;;;;;;2.16;100.00;101470.25;7387250;19;20430;-51
2022/03/16 04:27:01;;;;;;;42.50;20.10;;;;;;;2.12;100.00;101477.50;7392066;19;20391;-50
2022/03/16 04:29:30;;;;;;;84.97;34.90;;;;;;;2.14;100.00;101474.34;7390436;19;20443;-53
2022/03/16 04:32:00;;;;;;;48.77;20.67;;;;;;;2.02;100.00;101466.50;7392346;19;20406;-52
2022/03/16 04:34:30;;;;;;;42.80;21.17;;;;;;;1.99;100.00;101466.25;7385957;19;20433;-54
2022/03/16 04:37:00;;;;;;;47.37;22.63;;;;;;;1.99;100.00;101468.78;7392348;19;20383;-54
2022/03/16 04:39:32;;;;;;;51.83;22.83;;;;;;;1.96;100.00;101458.34;7386306;19;20943;-54
2022/03/16 04:42:02;;;;;;;43.53;21.63;;;;;;;1.93;100.00;101459.69;7392167;19;20374;-54
2022/03/16 04:44:31;;;;;;;43.10;21.03;;;;;;;1.92;100.00;101461.38;7386062;19;20438;-52
2022/03/16 04:47:01;;;;;;;55.67;24.17;;;;;;;1.87;100.00;101455.88;7398225;19;20906;-50
2022/03/16 04:49:31;;;;;;;41.63;20.37;;;;;;;1.86;100.00;101456.63;7393933;19;20441;-54
2022/03/16 04:52:00;;;;;;;44.33;20.40;;;;;;;1.80;100.00;101445.91;7401342;19;20392;-51
2022/03/16 04:54:32;;;;;;;57.17;23.53;;;;;;;1.78;100.00;101442.34;7393496;19;21021;-50
2022/03/16 04:57:02;;;;;;;47.73;20.93;;;;;;;1.71;100.00;101442.56;7398654;19;20372;-54
2022/03/16 04:59:32;;;;;;;39.73;21.63;;;;;;;1.64;100.00;101437.69;7393252;19;20416;-51
2022/03/16 05:02:01;;;;;;;49.30;22.17;;;;;;;1.68;100.00;101434.63;7398349;19;20947;-52
2022/03/16 05:04:31;;;;;;;44.70;21.00;;;;;;;1.73;100.00;101439.41;7392789;19;20402;-53
2022/03/16 05:07:01;;;;;;;47.97;21.50;;;;;;;1.72;100.00;101435.06;7398409;19;20419;-50
2022/03/16 05:09:33;;;;;;;44.80;20.13;;;;;;;1.71;100.00;101435.81;7392818;19;20404;-53
2022/03/16 05:12:03;;;;;;;47.93;21.30;;;;;;;1.65;100.00;101437.84;7398642;19;20370;-50
2022/03/16 05:14:32;;;;;;;45.33;21.50;;;;;;;1.65;100.00;101442.91;7391399;19;20427;-48
2022/03/16 05:17:02;;;;;;;43.83;20.70;;;;;;;1.60;100.00;101439.94;7400998;19;20747;-51
2022/03/16 05:19:33;;;;;;;43.93;20.70;;;;;;;1.59;100.00;101450.88;7392980;19;20419;-51
2022/03/16 05:22:02;;;;;;;41.50;19.77;;;;;;;1.59;100.00;101453.41;7398337;19;20371;-51
2022/03/16 05:24:34;;;;;;;54.20;21.77;;;;;;;1.53;100.00;101454.53;7392093;19;20432;-54
2022/03/16 05:27:04;;;;;;;39.53;19.60;;;;;;;1.54;100.00;101462.28;7397568;19;20370;-51
2022/03/16 05:29:33;;;;;;;41.90;20.73;;;;;;;1.53;100.00;101468.13;7392278;19;20421;-53
2022/03/16 05:32:03;;;;;;;42.77;20.17;;;;;;;1.56;100.00;101470.06;7397620;19;20359;-52
2022/03/16 05:34:32;;;;;;;47.53;20.40;;;;;;;1.49;100.00;101466.09;7390730;19;20414;-52
2022/03/16 05:37:03;;;;;;;41.43;20.07;;;;;;;1.51;100.00;101476.38;7397614;19;20375;-51
2022/03/16 05:39:35;;;;;;;43.20;20.03;;;;;;;1.50;100.00;101485.69;7391779;19;20426;-52
2022/03/16 05:42:05;;;;;;;40.73;19.53;;;;;;;1.48;100.00;101484.63;7397357;19;20367;-51
2022/03/16 05:44:35;;;;;;;42.13;20.50;;;;;;;1.37;100.00;101496.38;7392955;19;20418;-51
2022/03/16 05:47:04;;;;;;;46.47;20.43;;;;;;;1.37;100.00;101493.84;7397059;19;20386;-53
2022/03/16 05:49:34;;;;;;;41.67;19.80;;;;;;;1.35;100.00;101495.38;7391178;19;20405;-55
2022/03/16 05:52:03;;;;;;;42.83;20.03;;;;;;;1.32;100.00;101495.97;7397207;19;20367;-51
2022/03/16 05:54:35;;;;;;;41.77;20.20;;;;;;;1.38;100.00;101494.75;7391466;19;20398;-51
2022/03/16 05:57:05;;;;;;;40.23;18.80;;;;;;;1.29;100.00;101504.97;7396104;19;20388;-52
2022/03/16 05:59:36;;;;;;;47.20;19.93;;;;;;;1.28;100.00;101508.28;7388939;19;20428;-50
2022/03/16 06:02:05;;;;;;;43.93;20.90;;;;;;;1.32;100.00;101506.16;7396672;19;20391;-52
2022/03/16 06:04:35;;;;;;;44.60;20.70;;;;;;;1.36;100.00;101512.41;7390551;19;20929;-54
2022/03/16 06:07:05;;;;;;;43.30;20.07;;;;;;;1.28;100.00;101518.44;7396849;19;20373;-53
2022/03/16 06:09:37;;;;;;;50.27;20.40;;;;;;;1.34;100.00;101521.56;7390780;19;20399;-50
2022/03/16 06:12:11;;;;;;;45.70;18.90;;;;;;;1.35;100.00;101515.72;7396779;19;20448;-50
2022/03/16 06:14:41;;;;;;;38.00;18.30;;;;;;;1.42;100.00;101518.03;7390473;19;20394;-51
2022/03/16 06:17:10;;;;;;;44.30;20.97;;;;;;;1.47;100.00;101526.09;7396174;19;20375;-55
2022/03/16 06:19:40;;;;;;;40.90;20.30;;;;;;;1.35;100.00;101525.88;7390909;19;20402;-52
2022/03/16 06:22:09;;;;;;;38.63;19.67;;;;;;;1.41;100.00;101531.53;7396259;19;20467;-52
2022/03/16 06:24:41;;;;;;;39.57;19.53;;;;;;;1.46;100.00;101540.47;7389908;19;20418;-54
2022/03/16 06:27:11;;;;;;;41.00;19.87;;;;;;;1.50;100.00;101539.09;7397300;19;20393;-50
2022/03/16 06:29:40;;;;;;;40.43;19.80;;;;;;;1.52;100.00;101546.84;7389582;19;20442;-55
2022/03/16 06:32:11;;;;;;;39.70;21.30;;;;;;;1.50;100.00;101538.19;7398214;19;20391;-53
2022/03/16 06:34:40;;;;;;;42.13;21.23;;;;;;;1.52;100.00;101544.31;7389925;19;20415;-54
2022/03/16 06:37:10;;;;;;;47.57;21.37;;;;;;;1.53;100.00;101541.91;7395365;19;20391;-52
2022/03/16 06:39:42;;;;;;;44.60;20.50;;;;;;;1.64;100.00;101537.78;7389125;19;20415;-50
2022/03/16 06:42:11;;;;;;;39.27;20.53;;;;;;;1.72;100.00;101546.13;7399931;19;20979;-51
2022/03/16 06:44:41;;;;;;;64.60;22.87;;;;;;;1.79;100.00;101535.72;7387522;19;20422;-54
2022/03/16 06:47:10;;;;;;;38.27;20.13;;;;;;;1.82;100.00;101528.38;7393345;19;20379;-52
2022/03/16 06:49:40;;;;;;;41.87;20.50;;;;;;;1.89;100.00;101532.34;7389322;19;20398;-52
2022/03/16 06:52:10;;;;;;;40.27;21.03;;;;;;;1.97;100.00;101533.97;7395183;19;20396;-54
2022/03/16 06:54:42;;;;;;;38.73;19.67;;;;;;;2.08;100.00;101531.44;7388856;19;20411;-55
2022/03/16 06:57:12;;;;;;;42.27;21.87;;;;;;;2.20;100.00;101529.09;7395716;19;20387;-53
2022/03/16 07:00:01;;;;;;;49.03;22.33;;;;;;;2.28;100.00;101531.56;7392479;19;20466;-47
2022/03/16 07:02:31;;;;;;;39.40;18.83;;;;;;;2.29;100.00;101524.81;7394445;19;20367;-52
2022/03/16 07:05:00;;;;;;;37.57;18.83;;;;;;;2.38;100.00;101532.38;7392217;19;20438;-56
2022/03/16 07:07:30;;;;;;;35.37;17.70;;;;;;;3.98;100.00;101494.59;7394755;19;20742;-52
2022/03/16 07:10:02;;;;;;;41.27;20.77;;;;;;;4.50;100.00;101498.63;7392522;19;20415;-52
2022/03/16 07:12:31;;;;;;;52.83;27.43;;;;;;;4.29;100.00;101511.47;7394506;19;20386;-54
2022/03/16 07:15:01;;;;;;;44.00;24.30;;;;;;;4.41;100.00;101512.44;7392214;19;20470;-51
2022/03/16 07:17:30;;;;;;;51.37;26.67;;;;;;;4.07;100.00;101526.72;7394322;19;20388;-52
2022/03/16 07:20:03;;;;;;;48.63;22.60;;;;;;;3.73;100.00;101542.75;7392658;19;20411;-52
2022/03/16 07:22:32;;;;;;;39.30;20.93;;;;;;;3.42;100.00;101558.06;7387474;19;20412;-56
2022/03/16 07:25:24;;;;;;;60.70;30.47;;;;;;;4.19;100.00;101554.16;7396147;19;20434;-50
2022/03/16 07:27:54;;;;;;;40.53;22.53;;;;;;;4.13;100.00;101566.44;7392085;19;20491;-51
2022/03/16 07:30:23;;;;;;;40.03;21.57;;;;;;;3.75;100.00;101582.09;7397222;19;20950;-48
2022/03/16 07:32:53;;;;;;;60.50;30.47;;;;;;;4.11;100.00;101575.63;7389610;19;20942;-54
2022/03/16 07:35:26;;;;;;;42.77;23.10;;;;;;;3.96;100.00;101592.28;7392245;19;20490;-54
2022/03/16 07:37:57;;;;;;;31.60;16.03;;;;;;;3.62;100.00;101596.38;7391229;19;20407;-53
2022/03/16 07:40:30;;;;;;;47.23;26.60;;;;;;;3.78;100.00;101597.63;7396796;19;20394;-51
2022/03/16 07:42:59;;;;;;;30.07;16.30;;;;;;;3.61;100.00;101604.81;7387758;19;20506;-54
2022/03/16 07:45:30;;;;;;;31.93;16.70;;;;;;;3.52;100.00;101606.56;7392154;19;20412;-52
2022/03/16 07:47:59;;;;;;;31.90;16.00;;;;;;;3.52;100.00;101601.47;7385852;19;20382;-53
2022/03/16 07:50:29;;;;;;;30.37;17.07;;;;;;;3.50;100.00;101601.34;7391724;19;20446;-55
2022/03/16 07:52:58;;;;;;;36.50;17.07;;;;;;;3.47;100.00;101602.75;7388114;19;20415;-48
2022/03/16 07:55:31;;;;;;;31.70;17.40;;;;;;;3.52;100.00;101604.03;7391837;19;20479;-50
2022/03/16 07:58:01;;;;;;;37.73;16.93;;;;;;;3.50;100.00;101606.44;7391001;19;20405;-50
2022/03/16 08:00:31;;;;;;;30.37;16.00;;;;;;;3.52;100.00;101604.03;7392913;19;20475;-54
2022/03/16 08:03:03;;;;;;;28.33;16.70;;;;;;;3.51;100.00;101607.34;7388180;19;20402;-52
2022/03/16 08:05:33;;;;;;;31.77;16.07;;;;;;;3.56;100.00;101600.97;7391128;19;20430;-49
2022/03/16 08:08:02;;;;;;;30.93;16.30;;;;;;;3.63;100.00;101598.16;7384594;19;20406;-51
2022/03/16 08:10:34;;;;;;;36.80;15.93;;;;;;;3.73;100.00;101601.47;7392728;19;20387;-50
2022/03/16 08:13:04;;;;;;;31.10;16.70;;;;;;;3.73;100.00;101598.91;7386587;19;20953;-50
2022/03/16 08:15:35;;;;;;;31.20;17.20;;;;;;;3.75;100.00;101593.19;7390650;19;20399;-54
2022/03/16 08:18:04;;;;;;;28.90;15.57;;;;;;;3.78;100.00;101597.63;7386515;19;20409;-47
2022/03/16 08:20:34;;;;;;;30.73;16.40;;;;;;;3.81;100.00;101584.25;7397502;19;20367;-52
2022/03/16 08:23:04;;;;;;;30.37;15.20;;;;;;;3.86;100.00;101588.97;7393686;19;20730;-52
2022/03/16 08:25:57;;;;;;;29.70;15.30;;;;;;;3.91;100.00;101595.34;7397130;19;20407;-54
2022/03/16 08:28:27;;;;;;;26.43;15.13;;;;;;;3.97;100.00;101592.41;7394707;19;21021;-48
2022/03/16 08:30:56;;;;;;;29.90;16.33;;;;;;;3.98;100.00;101588.16;7401948;19;20394;-51
2022/03/16 08:33:26;;;;;;;31.90;16.03;;;;;;;4.06;100.00;101587.16;7394128;19;20423;-50
2022/03/16 08:35:57;;;;;;;35.00;16.57;;;;;;;4.17;100.00;101588.91;7401344;19;20434;-49
2022/03/16 08:38:28;;;;;;;27.90;15.20;;;;;;;4.27;100.00;101585.47;7393973;19;20415;-52
2022/03/16 08:41:00;;;;;;;26.70;15.53;;;;;;;4.36;100.00;101595.50;7400452;19;20402;-49
2022/03/16 08:43:30;;;;;;;27.57;14.80;;;;;;;4.29;100.00;101598.34;7392036;19;20510;-52
2022/03/16 08:46:00;;;;;;;26.20;13.43;;;;;;;4.33;100.00;101600.38;7396638;19;20433;-51
2022/03/16 08:48:30;;;;;;;26.40;15.23;;;;;;;4.49;100.00;101601.59;7389836;19;20415;-54
2022/03/16 08:50:59;;;;;;;23.13;14.17;;;;;;;4.53;100.00;101595.97;7402950;19;20395;-52
2022/03/16 08:53:29;;;;;;;27.90;14.80;;;;;;;4.58;100.00;101600.66;7391847;19;20415;-50
2022/03/16 08:56:01;;;;;;;62.77;32.30;;;;;;;4.89;100.00;101603.88;7396456;19;20422;-55
2022/03/16 08:58:30;;;;;;;35.60;20.20;;;;;;;4.95;100.00;101605.25;7392607;19;20433;-54
2022/03/16 09:01:00;;;;;;;39.20;21.50;;;;;;;5.00;100.00;101603.94;7398841;19;20472;-52
2022/03/16 09:03:30;;;;;;;28.50;15.93;;;;;;;4.96;100.00;101616.34;7393935;19;20427;-50
2022/03/16 09:06:01;;;;;;;41.67;21.53;;;;;;;5.20;100.00;101607.16;7396305;19;20418;-51
2022/03/16 09:08:31;;;;;;;34.13;18.63;;;;;;;5.31;100.00;101619.88;7392167;19;20498;-50
2022/03/16 09:11:03;;;;;;;38.53;21.53;;;;;;;5.45;100.00;101618.38;7398393;19;20411;-52
2022/03/16 09:13:33;;;;;;;28.70;15.50;;;;;;;5.58;100.00;101620.22;7393308;19;20431;-55
2022/03/16 09:16:03;;;;;;;83.80;40.23;;;;;;;5.62;100.00;101629.88;7396395;19;20423;-55
2022/03/16 09:18:32;;;;;;;54.10;30.00;;;;;;;5.61;100.00;101634.13;7391824;19;20423;-53
2022/03/16 09:21:02;;;;;;;28.23;16.80;;;;;;;5.70;100.00;101641.63;7397883;19;20385;-51
2022/03/16 09:23:32;;;;;;;21.47;13.33;;;;;;;5.72;100.00;101640.06;7393486;19;20406;-49
2022/03/16 09:26:05;;;;;;;22.47;13.07;;;;;;;5.73;100.00;101651.19;7395225;19;20400;-50
2022/03/16 09:28:35;;;;;;;21.20;12.53;;;;;;;5.75;100.00;101659.88;7388698;19;20419;-49
2022/03/16 09:31:09;;;;;;;18.27;11.60;;;;;;;5.89;100.00;101664.38;7398024;19;20396;-50
2022/03/16 09:33:40;;;;;;;20.70;12.30;;;;;;;5.99;100.00;101668.53;7391883;19;20426;-49
2022/03/16 09:36:10;;;;;;;18.53;12.10;;;;;;;6.05;100.00;101674.13;7395132;19;20860;-47
2022/03/16 09:38:40;;;;;;;28.73;15.43;;;;;;;6.19;100.00;101684.53;7391224;19;20417;-52
2022/03/16 09:41:13;;;;;;;21.53;12.10;;;;;;;6.30;100.00;101693.91;7396584;19;20458;-49
2022/03/16 09:43:42;;;;;;;19.67;11.73;;;;;;;6.39;100.00;101703.06;7391909;19;20420;-51
2022/03/16 09:46:15;;;;;;;22.40;12.10;;;;;;;6.50;100.00;101707.31;7394873;19;20952;-52
2022/03/16 09:48:44;;;;;;;32.67;19.03;;;;;;;6.58;100.00;101711.34;7390421;19;20941;-53
2022/03/16 09:51:15;;;;;;;17.37;11.40;;;;;;;6.76;100.00;101718.56;7396332;19;20389;-56
2022/03/16 09:53:45;;;;;;;20.63;11.20;;;;;;;6.83;100.00;101738.75;7391712;19;20841;-53
2022/03/16 09:56:23;;;;;;;24.67;14.83;;;;;;;7.02;100.00;101737.53;7396612;19;20459;-51
2022/03/16 09:58:52;;;;;;;31.93;15.53;;;;;;;7.15;100.00;101747.91;7390334;19;20413;-53
2022/03/16 10:01:22;;;;;;;30.83;16.70;;;;;;;7.46;100.00;101743.13;7396509;19;20415;-48
2022/03/16 10:03:52;;;;;;;26.13;14.40;;;;;;;7.65;100.00;101761.63;7391628;19;20418;-54
2022/03/16 10:06:24;;;;;;;34.27;17.50;;;;;;;7.70;100.00;101779.94;7396151;19;20453;-48
2022/03/16 10:14:20;;;;;;;24.43;15.10;;;;;;;8.98;100.00;101830.50;7391410;19;20429;-49
2022/03/16 10:19:51;;;;;;;30.20;17.00;;;;;;;9.40;100.00;101902.75;7390292;19;20749;-50
2022/03/16 10:22:29;;;;;;;67.23;35.50;;;;;;;9.02;100.00;101926.84;7395861;19;20456;-52
2022/03/16 10:25:03;;;;;;;130.27;66.83;;;;;;;9.56;100.00;101944.94;7396368;19;20439;-47
2022/03/16 10:27:37;;;;;;;17.87;11.03;;;;;;;9.18;100.00;101965.69;7389584;19;21292;-58
2022/03/16 10:30:09;;;;;;;54.23;33.53;;;;;;;9.62;100.00;101963.38;7395394;19;20401;-51
2022/03/16 10:32:43;;;;;;;52.73;27.03;;;;;;;9.56;100.00;101981.91;7390723;19;20379;-51
2022/03/16 10:35:12;;;;;;;35.37;20.70;;;;;;;10.05;100.00;101982.41;7394036;19;20429;-51
2022/03/16 10:37:42;;;;;;;23.27;13.97;;;;;;;10.04;100.00;102012.44;7395050;19;20427;-49
2022/03/16 10:40:20;;;;;;;19.30;11.80;;;;;;;10.16;100.00;102008.88;7394064;19;20398;-53
2022/03/16 10:48:18;;;;;;;19.03;10.60;;;;;;;10.34;100.00;102025.50;7389309;19;20423;-52
2022/03/16 10:50:47;;;;;;;30.50;15.77;;;;;;;10.57;100.00;102038.09;7395523;19;20402;-53
2022/03/16 10:53:21;;;;;;;90.53;49.07;;;;;;;10.52;100.00;102058.47;7391240;19;20416;-53
2022/03/16 10:55:51;;;;;;;48.97;28.13;;;;;;;10.21;100.00;102066.81;7393130;19;20427;-52
2022/03/16 10:58:23;;;;;;;40.33;22.83;;;;;;;10.14;100.00;102062.91;7390417;19;20424;-49
2022/03/16 11:00:56;;;;;;;59.90;32.90;;;;;;;10.37;100.00;102060.94;7398879;19;20405;-54
2022/03/16 11:03:29;;;;;;;44.30;24.87;;;;;;;10.39;100.00;102055.06;7388755;19;20424;-50
2022/03/16 11:05:59;;;;;;;15.20;9.00;;;;;;;9.99;100.00;102070.56;7392836;19;20783;-52
2022/03/16 11:08:29;;;;;;;24.37;13.07;;;;;;;10.15;100.00;102061.25;7387618;19;20411;-50
2022/03/16 11:10:58;;;;;;;11.67;6.70;;;;;;;9.97;100.00;102065.31;7393793;19;20485;-51
2022/03/16 11:13:28;;;;;;;18.37;11.40;;;;;;;10.12;100.00;102052.50;7385685;19;20439;-50
2022/03/16 11:15:59;;;;;;;25.43;13.87;;;;;;;10.15;100.00;102056.09;7389203;19;20411;-54
2022/03/16 11:18:29;;;;;;;17.33;9.10;;;;;;;9.89;100.00;102057.88;7384785;19;20419;-50
2022/03/16 11:21:04;;;;;;;22.70;12.27;;;;;;;10.00;100.00;102051.69;7391464;19;20729;-50
2022/03/16 11:26:39;;;;;;;15.27;6.87;;;;;;;9.96;100.00;102054.91;7389303;19;20427;-53
2022/03/16 11:29:18;;;;;;;16.13;10.30;;;;;;;10.13;100.00;102053.41;7384373;19;20438;-49
2022/03/16 11:31:47;;;;;;;23.80;12.30;;;;;;;10.10;100.00;102061.84;7391120;19;20720;-52
2022/03/16 11:34:23;;;;;;;20.07;11.77;;;;;;;10.30;100.00;102062.22;7387395;19;20429;-48
2022/03/16 11:37:03;;;;;;;24.33;12.80;;;;;;;10.34;100.00;102068.47;7391336;19;20383;-48
2022/03/16 11:39:42;;;;;;;17.10;10.07;;;;;;;10.50;100.00;102075.50;7385464;19;21037;-49
2022/03/16 11:42:13;;;;;;;13.93;6.80;;;;;;;10.12;100.00;102091.19;7391011;19;20455;-51